Sao Sebastiao, Brazil
Current Conditions -  °F | °C
As of 7:00 PM on Tuesday 21 Oct 2014 (Local Time) from SBSJ Reporting Station
Broken Clouds Broken Clouds  
Wind Chill: 70°   Ceiling: 7000
Heat Index: 70°   Visibility: 6mi
Dew Point: 54°   Wind: 13mph
Humidity: 56%   Direction: 140°SE
Pressure: 30.15"   Gusts: NA
Location:  23.79°S, 45.41°W
Report Text: SBSJ 212100Z 14011KT 9999 SCT015 BKN070 21/12 Q1021
Loading
Personal Weather Stations






























Interactive Weather Map
Tropical Storm Tracking
New forecast layout! Learn more

10-Day Weather Forecast

Advertisements
Track Severe Weather on mobile